sensor_id;sensor_type;location;lat;lon;timestamp;P1;durP1;ratioP1;P2;durP2;ratioP2
74483;SDS011;62942;52.462;10.846;2023-09-19T00:00:10;0.9;;;2.5;;
74483;SDS011;62942;52.462;10.846;2023-09-19T00:01:09;0.8;;;2.4;;
74483;SDS011;62942;52.462;10.846;2023-09-19T00:02:19;0.8;;;1.6;;
74483;SDS011;62942;52.462;10.846;2023-09-19T00:03:29;0.9;;;2;;
74483;SDS011;62942;52.462;10.846;2023-09-19T00:04:30;0.9;;;3;;
74483;SDS011;62942;52.462;10.846;2023-09-19T00:05:30;0.9;;;2;;
74483;SDS011;62942;52.462;10.846;2023-09-19T00:06:39;0.9;;;2.4;;
74483;SDS011;62942;52.462;10.846;2023-09-19T00:07:50;0.8;;;1.9;;
74483;SDS011;62942;52.462;10.846;2023-09-19T00:08:59;0.9;;;2.2;;
74483;SDS011;62942;52.462;10.846;2023-09-19T00:10:09;1;;;2.4;;
74483;SDS011;62942;52.462;10.846;2023-09-19T00:11:09;0.8;;;1.8;;
74483;SDS011;62942;52.462;10.846;2023-09-19T00:12:19;0.9;;;2.5;;
74483;SDS011;62942;52.462;10.846;2023-09-19T00:13:29;0.9;;;1.9;;
74483;SDS011;62942;52.462;10.846;2023-09-19T00:14:39;0.9;;;2;;
74483;SDS011;62942;52.462;10.846;2023-09-19T00:15:49;1;;;2.7;;
74483;SDS011;62942;52.462;10.846;2023-09-19T00:16:49;0.9;;;2.5;;
74483;SDS011;62942;52.462;10.846;2023-09-19T00:17:59;0.8;;;2;;
74483;SDS011;62942;52.462;10.846;2023-09-19T00:19:09;0.8;;;2.2;;
74483;SDS011;62942;52.462;10.846;2023-09-19T00:20:20;1;;;2;;
74483;SDS011;62942;52.462;10.846;2023-09-19T00:21:19;0.9;;;3.6;;
74483;SDS011;62942;52.462;10.846;2023-09-19T00:22:29;0.8;;;1.5;;
74483;SDS011;62942;52.462;10.846;2023-09-19T00:23:39;0.8;;;2.3;;
74483;SDS011;62942;52.462;10.846;2023-09-19T00:24:49;0.8;;;2.3;;
74483;SDS011;62942;52.462;10.846;2023-09-19T00:26:00;1;;;2.6;;
74483;SDS011;62942;52.462;10.846;2023-09-19T00:26:59;0.9;;;2.3;;
74483;SDS011;62942;52.462;10.846;2023-09-19T00:28:09;1;;;3.9;;
74483;SDS011;62942;52.462;10.846;2023-09-19T00:29:19;0.9;;;2.2;;
74483;SDS011;62942;52.462;10.846;2023-09-19T00:30:29;1.1;;;2.1;;
74483;SDS011;62942;52.462;10.846;2023-09-19T00:31:39;1;;;2.5;;
74483;SDS011;62942;52.462;10.846;2023-09-19T00:32:50;1;;;2;;
74483;SDS011;62942;52.462;10.846;2023-09-19T00:33:59;1;;;2.7;;
74483;SDS011;62942;52.462;10.846;2023-09-19T00:35:09;0.8;;;1.9;;
74483;SDS011;62942;52.462;10.846;2023-09-19T00:36:19;1;;;3.5;;
74483;SDS011;62942;52.462;10.846;2023-09-19T00:37:29;1.1;;;3.2;;
74483;SDS011;62942;52.462;10.846;2023-09-19T00:38:39;1.3;;;3.7;;
74483;SDS011;62942;52.462;10.846;2023-09-19T00:39:40;1;;;3.2;;
74483;SDS011;62942;52.462;10.846;2023-09-19T00:40:50;1.1;;;3.3;;
74483;SDS011;62942;52.462;10.846;2023-09-19T00:41:49;1.1;;;3.4;;
74483;SDS011;62942;52.462;10.846;2023-09-19T00:42:59;1;;;1.9;;
74483;SDS011;62942;52.462;10.846;2023-09-19T00:43:59;1.1;;;2.1;;
74483;SDS011;62942;52.462;10.846;2023-09-19T00:45:10;1;;;2.4;;
74483;SDS011;62942;52.462;10.846;2023-09-19T00:46:19;1.1;;;3.2;;
74483;SDS011;62942;52.462;10.846;2023-09-19T00:47:29;1.1;;;3;;
74483;SDS011;62942;52.462;10.846;2023-09-19T00:48:29;1;;;2.5;;
74483;SDS011;62942;52.462;10.846;2023-09-19T00:49:39;1.1;;;2.8;;
74483;SDS011;62942;52.462;10.846;2023-09-19T00:50:49;1.1;;;2.8;;
74483;SDS011;62942;52.462;10.846;2023-09-19T00:51:59;1.1;;;2.2;;
74483;SDS011;62942;52.462;10.846;2023-09-19T00:53:09;1;;;1.9;;
74483;SDS011;62942;52.462;10.846;2023-09-19T00:54:09;1;;;3.1;;
74483;SDS011;62942;52.462;10.846;2023-09-19T00:55:19;1.1;;;2.9;;
74483;SDS011;62942;52.462;10.846;2023-09-19T00:56:29;1;;;2.4;;
74483;SDS011;62942;52.462;10.846;2023-09-19T00:57:29;1.1;;;2.9;;
74483;SDS011;62942;52.462;10.846;2023-09-19T00:58:39;1.4;;;4;;
74483;SDS011;62942;52.462;10.846;2023-09-19T00:59:39;1.2;;;2.3;;
74483;SDS011;62942;52.462;10.846;2023-09-19T01:00:49;1.1;;;2.9;;
74483;SDS011;62942;52.462;10.846;2023-09-19T01:01:59;1.3;;;3.4;;
74483;SDS011;62942;52.462;10.846;2023-09-19T01:02:59;1.3;;;2.7;;
74483;SDS011;62942;52.462;10.846;2023-09-19T01:04:09;1.2;;;3.3;;
74483;SDS011;62942;52.462;10.846;2023-09-19T01:05:10;1.2;;;2.7;;
74483;SDS011;62942;52.462;10.846;2023-09-19T01:06:19;1.2;;;2.7;;
74483;SDS011;62942;52.462;10.846;2023-09-19T01:07:19;1.5;;;3.3;;
74483;SDS011;62942;52.462;10.846;2023-09-19T01:08:19;1.1;;;3;;
74483;SDS011;62942;52.462;10.846;2023-09-19T01:09:29;1.2;;;2.7;;
74483;SDS011;62942;52.462;10.846;2023-09-19T01:10:41;1.2;;;2.7;;
74483;SDS011;62942;52.462;10.846;2023-09-19T01:11:40;1.1;;;2.7;;
74483;SDS011;62942;52.462;10.846;2023-09-19T01:12:53;1.4;;;4.2;;
74483;SDS011;62942;52.462;10.846;2023-09-19T01:14:02;1.2;;;3;;
74483;SDS011;62942;52.462;10.846;2023-09-19T01:15:11;1.3;;;2.4;;
74483;SDS011;62942;52.462;10.846;2023-09-19T01:16:10;1.2;;;3.2;;
74483;SDS011;62942;52.462;10.846;2023-09-19T01:17:20;1.2;;;2.5;;
74483;SDS011;62942;52.462;10.846;2023-09-19T01:18:21;1.4;;;2.8;;
74483;SDS011;62942;52.462;10.846;2023-09-19T01:19:47;1.2;;;3.9;;
74483;SDS011;62942;52.462;10.846;2023-09-19T01:20:32;1.3;;;3.6;;
74483;SDS011;62942;52.462;10.846;2023-09-19T01:21:42;1.3;;;3.3;;
74483;SDS011;62942;52.462;10.846;2023-09-19T01:22:53;1.4;;;3.5;;
74483;SDS011;62942;52.462;10.846;2023-09-19T01:24:34;1.5;;;4.8;;
74483;SDS011;62942;52.462;10.846;2023-09-19T01:25:06;1.4;;;2.6;;
74483;SDS011;62942;52.462;10.846;2023-09-19T01:26:07;1.4;;;3.6;;
74483;SDS011;62942;52.462;10.846;2023-09-19T01:27:13;1.4;;;3;;
74483;SDS011;62942;52.462;10.846;2023-09-19T01:28:15;1.6;;;4;;
74483;SDS011;62942;52.462;10.846;2023-09-19T01:29:23;1.4;;;3;;
74483;SDS011;62942;52.462;10.846;2023-09-19T01:30:31;1.4;;;3.9;;
74483;SDS011;62942;52.462;10.846;2023-09-19T01:31:39;1.3;;;3.2;;
74483;SDS011;62942;52.462;10.846;2023-09-19T01:32:50;1.9;;;3.8;;
74483;SDS011;62942;52.462;10.846;2023-09-19T01:34:00;1.5;;;4.2;;
74483;SDS011;62942;52.462;10.846;2023-09-19T01:34:59;1.4;;;4.7;;
74483;SDS011;62942;52.462;10.846;2023-09-19T01:36:09;1.4;;;3.2;;
74483;SDS011;62942;52.462;10.846;2023-09-19T01:37:20;1.3;;;2.8;;
74483;SDS011;62942;52.462;10.846;2023-09-19T01:38:19;1.4;;;3.6;;
74483;SDS011;62942;52.462;10.846;2023-09-19T01:39:29;1.3;;;4.2;;
74483;SDS011;62942;52.462;10.846;2023-09-19T01:40:40;1.5;;;3.9;;
74483;SDS011;62942;52.462;10.846;2023-09-19T01:41:52;1.4;;;2.8;;
74483;SDS011;62942;52.462;10.846;2023-09-19T01:42:50;1.5;;;3.9;;
74483;SDS011;62942;52.462;10.846;2023-09-19T01:43:49;1.3;;;2.3;;
74483;SDS011;62942;52.462;10.846;2023-09-19T01:44:51;1.5;;;3.3;;
74483;SDS011;62942;52.462;10.846;2023-09-19T01:46:03;1.5;;;3.2;;
74483;SDS011;62942;52.462;10.846;2023-09-19T01:47:22;1.6;;;3.4;;
74483;SDS011;62942;52.462;10.846;2023-09-19T01:48:20;1.6;;;3.9;;
74483;SDS011;62942;52.462;10.846;2023-09-19T01:49:22;1.7;;;4.3;;
74483;SDS011;62942;52.462;10.846;2023-09-19T01:50:30;1.6;;;4.5;;
74483;SDS011;62942;52.462;10.846;2023-09-19T01:51:42;1.8;;;3.7;;
74483;SDS011;62942;52.462;10.846;2023-09-19T01:52:51;1.7;;;3.9;;
74483;SDS011;62942;52.462;10.846;2023-09-19T01:54:00;1.9;;;5.4;;
74483;SDS011;62942;52.462;10.846;2023-09-19T01:55:09;1.9;;;3.8;;
74483;SDS011;62942;52.462;10.846;2023-09-19T01:56:21;1.9;;;4.2;;
74483;SDS011;62942;52.462;10.846;2023-09-19T01:57:20;2.1;;;4.6;;
74483;SDS011;62942;52.462;10.846;2023-09-19T01:58:30;1.9;;;4.2;;
74483;SDS011;62942;52.462;10.846;2023-09-19T01:59:41;1.9;;;4.4;;
74483;SDS011;62942;52.462;10.846;2023-09-19T02:00:40;1.9;;;4;;
74483;SDS011;62942;52.462;10.846;2023-09-19T02:01:49;2.1;;;3.8;;
74483;SDS011;62942;52.462;10.846;2023-09-19T02:02:59;2.2;;;5.8;;
74483;SDS011;62942;52.462;10.846;2023-09-19T02:04:09;2.1;;;3.4;;
74483;SDS011;62942;52.462;10.846;2023-09-19T02:05:23;2.1;;;4.9;;
74483;SDS011;62942;52.462;10.846;2023-09-19T02:06:29;2.3;;;5.9;;
74483;SDS011;62942;52.462;10.846;2023-09-19T02:07:39;2.1;;;4.7;;
74483;SDS011;62942;52.462;10.846;2023-09-19T02:08:49;2;;;4.1;;
74483;SDS011;62942;52.462;10.846;2023-09-19T02:09:59;2.2;;;4.3;;
74483;SDS011;62942;52.462;10.846;2023-09-19T02:11:09;2.2;;;3.4;;
74483;SDS011;62942;52.462;10.846;2023-09-19T02:12:09;2.3;;;4.7;;
74483;SDS011;62942;52.462;10.846;2023-09-19T02:13:20;2.2;;;5.3;;
74483;SDS011;62942;52.462;10.846;2023-09-19T02:14:29;2;;;3.8;;
74483;SDS011;62942;52.462;10.846;2023-09-19T02:15:39;2.1;;;3.7;;
74483;SDS011;62942;52.462;10.846;2023-09-19T02:16:49;2.2;;;5.3;;
74483;SDS011;62942;52.462;10.846;2023-09-19T02:17:49;2.1;;;4.1;;
74483;SDS011;62942;52.462;10.846;2023-09-19T02:18:59;2.2;;;4.4;;
74483;SDS011;62942;52.462;10.846;2023-09-19T02:19:59;2.1;;;4.7;;
74483;SDS011;62942;52.462;10.846;2023-09-19T02:20:59;2.1;;;4.3;;
74483;SDS011;62942;52.462;10.846;2023-09-19T02:22:09;2.2;;;4.8;;
74483;SDS011;62942;52.462;10.846;2023-09-19T02:23:10;2.3;;;4.7;;
74483;SDS011;62942;52.462;10.846;2023-09-19T02:24:19;2.7;;;5.1;;
74483;SDS011;62942;52.462;10.846;2023-09-19T02:25:29;2.3;;;5.6;;
74483;SDS011;62942;52.462;10.846;2023-09-19T02:26:39;2.3;;;4.5;;
74483;SDS011;62942;52.462;10.846;2023-09-19T02:27:49;2.3;;;5.7;;
74483;SDS011;62942;52.462;10.846;2023-09-19T02:28:49;2.3;;;3.8;;
74483;SDS011;62942;52.462;10.846;2023-09-19T02:29:59;2.4;;;4.7;;
74483;SDS011;62942;52.462;10.846;2023-09-19T02:30:59;2.6;;;5.8;;
74483;SDS011;62942;52.462;10.846;2023-09-19T02:32:09;2.3;;;5.2;;
74483;SDS011;62942;52.462;10.846;2023-09-19T02:33:09;2.6;;;4.4;;
74483;SDS011;62942;52.462;10.846;2023-09-19T02:34:09;2.5;;;5.1;;
74483;SDS011;62942;52.462;10.846;2023-09-19T02:35:19;2.4;;;6.1;;
74483;SDS011;62942;52.462;10.846;2023-09-19T02:36:29;2.5;;;4.5;;
74483;SDS011;62942;52.462;10.846;2023-09-19T02:37:39;2.5;;;5.1;;
74483;SDS011;62942;52.462;10.846;2023-09-19T02:38:39;2.4;;;4.3;;
74483;SDS011;62942;52.462;10.846;2023-09-19T02:39:49;2.5;;;4.3;;
74483;SDS011;62942;52.462;10.846;2023-09-19T02:40:59;2.4;;;5.4;;
74483;SDS011;62942;52.462;10.846;2023-09-19T02:42:09;2.6;;;4.6;;
74483;SDS011;62942;52.462;10.846;2023-09-19T02:43:09;2.4;;;4.9;;
74483;SDS011;62942;52.462;10.846;2023-09-19T02:44:19;2.5;;;5;;
74483;SDS011;62942;52.462;10.846;2023-09-19T02:45:29;2.6;;;4.5;;
74483;SDS011;62942;52.462;10.846;2023-09-19T02:46:39;2.5;;;6.6;;
74483;SDS011;62942;52.462;10.846;2023-09-19T02:47:39;2.4;;;6.6;;
74483;SDS011;62942;52.462;10.846;2023-09-19T02:48:49;2.5;;;4.2;;
74483;SDS011;62942;52.462;10.846;2023-09-19T02:49:49;2.4;;;4.4;;
74483;SDS011;62942;52.462;10.846;2023-09-19T02:50:59;2.3;;;3.9;;
74483;SDS011;62942;52.462;10.846;2023-09-19T02:51:59;2.5;;;5.7;;
74483;SDS011;62942;52.462;10.846;2023-09-19T02:52:59;2.5;;;5.6;;
74483;SDS011;62942;52.462;10.846;2023-09-19T02:54:09;2.4;;;5.8;;
74483;SDS011;62942;52.462;10.846;2023-09-19T02:55:19;2.5;;;5.8;;
74483;SDS011;62942;52.462;10.846;2023-09-19T02:56:29;2.4;;;4.5;;
74483;SDS011;62942;52.462;10.846;2023-09-19T02:57:39;2.7;;;4.5;;
74483;SDS011;62942;52.462;10.846;2023-09-19T02:58:39;2.5;;;6;;
74483;SDS011;62942;52.462;10.846;2023-09-19T02:59:39;2.6;;;4.6;;
74483;SDS011;62942;52.462;10.846;2023-09-19T03:00:49;2.2;;;4.4;;
74483;SDS011;62942;52.462;10.846;2023-09-19T03:01:59;2.3;;;4.4;;
74483;SDS011;62942;52.462;10.846;2023-09-19T03:02:59;2.6;;;4.9;;
74483;SDS011;62942;52.462;10.846;2023-09-19T03:04:09;2.1;;;5.2;;
74483;SDS011;62942;52.462;10.846;2023-09-19T03:05:19;2.5;;;4.4;;
74483;SDS011;62942;52.462;10.846;2023-09-19T03:06:29;2.6;;;4.9;;
74483;SDS011;62942;52.462;10.846;2023-09-19T03:07:29;2.5;;;5.7;;
74483;SDS011;62942;52.462;10.846;2023-09-19T03:08:29;2.5;;;4.6;;
74483;SDS011;62942;52.462;10.846;2023-09-19T03:09:39;2.4;;;4.8;;
74483;SDS011;62942;52.462;10.846;2023-09-19T03:10:39;2.4;;;4;;
74483;SDS011;62942;52.462;10.846;2023-09-19T03:11:49;2.4;;;4.7;;
74483;SDS011;62942;52.462;10.846;2023-09-19T03:12:59;2.4;;;5.3;;
74483;SDS011;62942;52.462;10.846;2023-09-19T03:13:59;2.2;;;4.5;;
74483;SDS011;62942;52.462;10.846;2023-09-19T03:15:09;2.4;;;4.6;;
74483;SDS011;62942;52.462;10.846;2023-09-19T03:16:09;2.5;;;5.9;;
74483;SDS011;62942;52.462;10.846;2023-09-19T03:17:19;2.3;;;6;;
74483;SDS011;62942;52.462;10.846;2023-09-19T03:18:29;2.4;;;5.1;;
74483;SDS011;62942;52.462;10.846;2023-09-19T03:19:29;2.6;;;6.1;;
74483;SDS011;62942;52.462;10.846;2023-09-19T03:20:29;2.6;;;5.4;;
74483;SDS011;62942;52.462;10.846;2023-09-19T03:21:29;2.5;;;5.1;;
74483;SDS011;62942;52.462;10.846;2023-09-19T03:22:39;2.4;;;6.5;;
74483;SDS011;62942;52.462;10.846;2023-09-19T03:23:39;2.6;;;5.7;;
74483;SDS011;62942;52.462;10.846;2023-09-19T03:24:49;2.7;;;4.8;;
74483;SDS011;62942;52.462;10.846;2023-09-19T03:25:59;2.4;;;5.8;;
74483;SDS011;62942;52.462;10.846;2023-09-19T03:26:59;2.5;;;4.3;;
74483;SDS011;62942;52.462;10.846;2023-09-19T03:27:59;2.6;;;5.5;;
74483;SDS011;62942;52.462;10.846;2023-09-19T03:28:59;2.5;;;5;;
74483;SDS011;62942;52.462;10.846;2023-09-19T03:30:09;2.6;;;5.6;;
74483;SDS011;62942;52.462;10.846;2023-09-19T03:31:09;2.6;;;5.9;;
74483;SDS011;62942;52.462;10.846;2023-09-19T03:32:09;2.7;;;6.3;;
74483;SDS011;62942;52.462;10.846;2023-09-19T03:33:19;2.6;;;5.4;;
74483;SDS011;62942;52.462;10.846;2023-09-19T03:34:29;2.5;;;5.5;;
74483;SDS011;62942;52.462;10.846;2023-09-19T03:35:29;2.6;;;5.7;;
74483;SDS011;62942;52.462;10.846;2023-09-19T03:36:29;2.6;;;5.2;;
74483;SDS011;62942;52.462;10.846;2023-09-19T03:37:39;2.8;;;5.9;;
74483;SDS011;62942;52.462;10.846;2023-09-19T03:38:49;2.8;;;5;;
74483;SDS011;62942;52.462;10.846;2023-09-19T03:39:59;2.8;;;6;;
74483;SDS011;62942;52.462;10.846;2023-09-19T03:40:59;2.7;;;5.2;;
74483;SDS011;62942;52.462;10.846;2023-09-19T03:42:09;2.8;;;5.6;;
74483;SDS011;62942;52.462;10.846;2023-09-19T03:43:09;3;;;6.3;;
74483;SDS011;62942;52.462;10.846;2023-09-19T03:44:09;2.7;;;5.6;;
74483;SDS011;62942;52.462;10.846;2023-09-19T03:45:19;2.9;;;6.8;;
74483;SDS011;62942;52.462;10.846;2023-09-19T03:46:29;2.7;;;5.1;;
74483;SDS011;62942;52.462;10.846;2023-09-19T03:47:29;3.2;;;5.6;;
74483;SDS011;62942;52.462;10.846;2023-09-19T03:48:29;2.9;;;7.1;;
74483;SDS011;62942;52.462;10.846;2023-09-19T03:49:29;2.6;;;6;;
74483;SDS011;62942;52.462;10.846;2023-09-19T03:50:39;2.9;;;6;;
74483;SDS011;62942;52.462;10.846;2023-09-19T03:51:49;3;;;5.8;;
74483;SDS011;62942;52.462;10.846;2023-09-19T03:52:49;3;;;6.3;;
74483;SDS011;62942;52.462;10.846;2023-09-19T03:53:49;2.8;;;5.8;;
74483;SDS011;62942;52.462;10.846;2023-09-19T03:54:59;2.8;;;5.6;;
74483;SDS011;62942;52.462;10.846;2023-09-19T03:55:59;3;;;7.2;;
74483;SDS011;62942;52.462;10.846;2023-09-19T03:57:09;3.2;;;6.8;;
74483;SDS011;62942;52.462;10.846;2023-09-19T03:58:09;2.8;;;5;;
74483;SDS011;62942;52.462;10.846;2023-09-19T03:59:19;3;;;6.9;;
74483;SDS011;62942;52.462;10.846;2023-09-19T04:00:29;2.8;;;5.5;;
74483;SDS011;62942;52.462;10.846;2023-09-19T04:01:29;2.9;;;5.5;;
74483;SDS011;62942;52.462;10.846;2023-09-19T04:02:39;3.3;;;6.8;;
74483;SDS011;62942;52.462;10.846;2023-09-19T04:03:39;3;;;7.2;;
74483;SDS011;62942;52.462;10.846;2023-09-19T04:04:39;3.1;;;5.3;;
74483;SDS011;62942;52.462;10.846;2023-09-19T04:05:39;3.1;;;7.5;;
74483;SDS011;62942;52.462;10.846;2023-09-19T04:06:49;3.4;;;8.4;;
74483;SDS011;62942;52.462;10.846;2023-09-19T04:07:49;3;;;5.8;;
74483;SDS011;62942;52.462;10.846;2023-09-19T04:08:59;3;;;5.8;;
74483;SDS011;62942;52.462;10.846;2023-09-19T04:10:09;3.3;;;7.9;;
74483;SDS011;62942;52.462;10.846;2023-09-19T04:11:09;3.2;;;5.9;;
74483;SDS011;62942;52.462;10.846;2023-09-19T04:12:09;3;;;6.5;;
74483;SDS011;62942;52.462;10.846;2023-09-19T04:13:19;3;;;6.2;;
74483;SDS011;62942;52.462;10.846;2023-09-19T04:14:29;3.3;;;7.4;;
74483;SDS011;62942;52.462;10.846;2023-09-19T04:15:29;3.3;;;7.1;;
74483;SDS011;62942;52.462;10.846;2023-09-19T04:16:39;3.4;;;6.5;;
74483;SDS011;62942;52.462;10.846;2023-09-19T04:17:49;3.2;;;6.2;;
74483;SDS011;62942;52.462;10.846;2023-09-19T04:18:59;3.5;;;7.1;;
74483;SDS011;62942;52.462;10.846;2023-09-19T04:20:09;3.5;;;6.6;;
74483;SDS011;62942;52.462;10.846;2023-09-19T04:21:19;3.2;;;5.2;;
74483;SDS011;62942;52.462;10.846;2023-09-19T04:22:29;3.6;;;8.5;;
74483;SDS011;62942;52.462;10.846;2023-09-19T04:23:39;3.6;;;6.1;;
74483;SDS011;62942;52.462;10.846;2023-09-19T04:24:40;3.7;;;7.8;;
74483;SDS011;62942;52.462;10.846;2023-09-19T04:25:50;3.6;;;7.7;;
74483;SDS011;62942;52.462;10.846;2023-09-19T04:26:50;3.8;;;6.9;;
74483;SDS011;62942;52.462;10.846;2023-09-19T04:28:00;3.9;;;6.9;;
74483;SDS011;62942;52.462;10.846;2023-09-19T04:29:10;3.8;;;7;;
74483;SDS011;62942;52.462;10.846;2023-09-19T04:30:10;3.7;;;7.4;;
74483;SDS011;62942;52.462;10.846;2023-09-19T04:31:10;3.8;;;8.4;;
74483;SDS011;62942;52.462;10.846;2023-09-19T04:32:20;3.6;;;7.1;;
74483;SDS011;62942;52.462;10.846;2023-09-19T04:33:30;4.1;;;8.6;;
74483;SDS011;62942;52.462;10.846;2023-09-19T04:34:40;3.9;;;10.6;;
74483;SDS011;62942;52.462;10.846;2023-09-19T04:35:40;4.3;;;8.3;;
74483;SDS011;62942;52.462;10.846;2023-09-19T04:36:50;4.3;;;10;;
74483;SDS011;62942;52.462;10.846;2023-09-19T04:38:00;4.1;;;7.9;;
74483;SDS011;62942;52.462;10.846;2023-09-19T04:39:00;4.2;;;7.6;;
74483;SDS011;62942;52.462;10.846;2023-09-19T04:40:10;4.3;;;9.3;;
74483;SDS011;62942;52.462;10.846;2023-09-19T04:41:20;4;;;8.4;;
74483;SDS011;62942;52.462;10.846;2023-09-19T04:42:25;4;;;7.5;;
74483;SDS011;62942;52.462;10.846;2023-09-19T04:43:30;3.8;;;6.4;;
74483;SDS011;62942;52.462;10.846;2023-09-19T04:44:40;3.9;;;10.3;;
74483;SDS011;62942;52.462;10.846;2023-09-19T04:45:50;4.3;;;8;;
74483;SDS011;62942;52.462;10.846;2023-09-19T04:47:00;4.2;;;9.3;;
74483;SDS011;62942;52.462;10.846;2023-09-19T04:48:00;4.2;;;8.4;;
74483;SDS011;62942;52.462;10.846;2023-09-19T04:49:00;4;;;8.7;;
74483;SDS011;62942;52.462;10.846;2023-09-19T04:50:10;4.4;;;11.3;;
74483;SDS011;62942;52.462;10.846;2023-09-19T04:51:10;4.4;;;10.2;;
74483;SDS011;62942;52.462;10.846;2023-09-19T04:52:20;4;;;8.3;;
74483;SDS011;62942;52.462;10.846;2023-09-19T04:53:20;3.9;;;8;;
74483;SDS011;62942;52.462;10.846;2023-09-19T04:54:30;4;;;8.6;;
74483;SDS011;62942;52.462;10.846;2023-09-19T04:55:30;3.8;;;8.3;;
74483;SDS011;62942;52.462;10.846;2023-09-19T04:56:40;4.1;;;7.9;;
74483;SDS011;62942;52.462;10.846;2023-09-19T04:57:50;4.1;;;9.6;;
74483;SDS011;62942;52.462;10.846;2023-09-19T04:59:00;4;;;9.6;;
74483;SDS011;62942;52.462;10.846;2023-09-19T05:00:11;3.6;;;7.3;;
74483;SDS011;62942;52.462;10.846;2023-09-19T05:01:20;3.6;;;8.1;;
74483;SDS011;62942;52.462;10.846;2023-09-19T05:02:20;3.7;;;6.1;;
74483;SDS011;62942;52.462;10.846;2023-09-19T05:03:20;4.1;;;9;;
74483;SDS011;62942;52.462;10.846;2023-09-19T05:04:30;3.9;;;7;;
74483;SDS011;62942;52.462;10.846;2023-09-19T05:05:30;4;;;8.7;;
74483;SDS011;62942;52.462;10.846;2023-09-19T05:06:30;4.4;;;8.1;;
74483;SDS011;62942;52.462;10.846;2023-09-19T05:07:40;4.4;;;9.7;;
74483;SDS011;62942;52.462;10.846;2023-09-19T05:08:50;4.1;;;8.7;;
74483;SDS011;62942;52.462;10.846;2023-09-19T05:10:00;4.3;;;8.3;;
74483;SDS011;62942;52.462;10.846;2023-09-19T05:11:01;4.3;;;9.3;;
74483;SDS011;62942;52.462;10.846;2023-09-19T05:12:10;4.4;;;8.1;;
74483;SDS011;62942;52.462;10.846;2023-09-19T05:13:20;4.4;;;7.9;;
74483;SDS011;62942;52.462;10.846;2023-09-19T05:14:20;4.3;;;7.9;;
74483;SDS011;62942;52.462;10.846;2023-09-19T05:15:20;4.2;;;9.8;;
74483;SDS011;62942;52.462;10.846;2023-09-19T05:16:30;4;;;6.7;;
74483;SDS011;62942;52.462;10.846;2023-09-19T05:17:30;3.9;;;6.8;;
74483;SDS011;62942;52.462;10.846;2023-09-19T05:18:40;4.1;;;8.2;;
74483;SDS011;62942;52.462;10.846;2023-09-19T05:19:50;4.2;;;8.2;;
74483;SDS011;62942;52.462;10.846;2023-09-19T05:20:50;3.9;;;6.4;;
74483;SDS011;62942;52.462;10.846;2023-09-19T05:22:00;4.2;;;8.7;;
74483;SDS011;62942;52.462;10.846;2023-09-19T05:23:10;4.1;;;8.1;;
74483;SDS011;62942;52.462;10.846;2023-09-19T05:24:10;4;;;7.2;;
74483;SDS011;62942;52.462;10.846;2023-09-19T05:25:10;4.3;;;7.3;;
74483;SDS011;62942;52.462;10.846;2023-09-19T05:26:10;4.3;;;6.5;;
74483;SDS011;62942;52.462;10.846;2023-09-19T05:27:20;4.4;;;9.9;;
74483;SDS011;62942;52.462;10.846;2023-09-19T05:28:30;4.4;;;8.3;;
74483;SDS011;62942;52.462;10.846;2023-09-19T05:29:30;4.4;;;9.2;;
74483;SDS011;62942;52.462;10.846;2023-09-19T05:30:40;4.3;;;7.4;;
74483;SDS011;62942;52.462;10.846;2023-09-19T05:31:50;4.5;;;8.7;;
74483;SDS011;62942;52.462;10.846;2023-09-19T05:33:00;4.7;;;9.5;;
74483;SDS011;62942;52.462;10.846;2023-09-19T05:34:10;4.6;;;8.6;;
74483;SDS011;62942;52.462;10.846;2023-09-19T05:35:10;4.7;;;10.9;;
74483;SDS011;62942;52.462;10.846;2023-09-19T05:36:20;4.9;;;10.6;;
74483;SDS011;62942;52.462;10.846;2023-09-19T05:37:20;4.7;;;9.6;;
74483;SDS011;62942;52.462;10.846;2023-09-19T05:38:30;4.7;;;8.4;;
74483;SDS011;62942;52.462;10.846;2023-09-19T05:39:40;4.8;;;7.7;;
74483;SDS011;62942;52.462;10.846;2023-09-19T05:40:50;5.2;;;9.1;;
74483;SDS011;62942;52.462;10.846;2023-09-19T05:42:00;5.3;;;12.1;;
74483;SDS011;62942;52.462;10.846;2023-09-19T05:43:00;5.2;;;9.9;;
74483;SDS011;62942;52.462;10.846;2023-09-19T05:44:10;5;;;7.9;;
74483;SDS011;62942;52.462;10.846;2023-09-19T05:45:20;5.1;;;9.8;;
74483;SDS011;62942;52.462;10.846;2023-09-19T05:46:20;4.9;;;10.5;;
74483;SDS011;62942;52.462;10.846;2023-09-19T05:47:30;5.1;;;10.3;;
74483;SDS011;62942;52.462;10.846;2023-09-19T05:48:40;5.2;;;9.1;;
74483;SDS011;62942;52.462;10.846;2023-09-19T05:49:50;5;;;10.1;;
74483;SDS011;62942;52.462;10.846;2023-09-19T05:51:00;5;;;9.4;;
74483;SDS011;62942;52.462;10.846;2023-09-19T05:52:10;5.1;;;10.7;;
74483;SDS011;62942;52.462;10.846;2023-09-19T05:53:10;5;;;9;;
74483;SDS011;62942;52.462;10.846;2023-09-19T05:54:20;5.5;;;11.6;;
74483;SDS011;62942;52.462;10.846;2023-09-19T05:55:20;5;;;9.2;;
74483;SDS011;62942;52.462;10.846;2023-09-19T05:56:30;5.3;;;11;;
74483;SDS011;62942;52.462;10.846;2023-09-19T05:57:30;5.3;;;11.7;;
74483;SDS011;62942;52.462;10.846;2023-09-19T05:58:40;5.3;;;11.2;;
74483;SDS011;62942;52.462;10.846;2023-09-19T05:59:50;5.4;;;11.1;;
74483;SDS011;62942;52.462;10.846;2023-09-19T06:01:00;5.4;;;9.5;;
74483;SDS011;62942;52.462;10.846;2023-09-19T06:02:10;5.5;;;11;;
74483;SDS011;62942;52.462;10.846;2023-09-19T06:03:20;5.4;;;10.4;;
74483;SDS011;62942;52.462;10.846;2023-09-19T06:04:30;5.5;;;9.5;;
74483;SDS011;62942;52.462;10.846;2023-09-19T06:05:40;5.4;;;10.5;;
74483;SDS011;62942;52.462;10.846;2023-09-19T06:06:50;5.4;;;10.5;;
74483;SDS011;62942;52.462;10.846;2023-09-19T06:07:50;5.3;;;10.8;;
74483;SDS011;62942;52.462;10.846;2023-09-19T06:08:50;5.4;;;10.5;;
74483;SDS011;62942;52.462;10.846;2023-09-19T06:10:00;5.1;;;9.9;;
74483;SDS011;62942;52.462;10.846;2023-09-19T06:11:10;5.2;;;11.2;;
74483;SDS011;62942;52.462;10.846;2023-09-19T06:12:10;5.1;;;11.3;;
74483;SDS011;62942;52.462;10.846;2023-09-19T06:13:20;5.3;;;11.3;;
74483;SDS011;62942;52.462;10.846;2023-09-19T06:14:30;4.7;;;8.2;;
74483;SDS011;62942;52.462;10.846;2023-09-19T06:15:30;5.1;;;11.3;;
74483;SDS011;62942;52.462;10.846;2023-09-19T06:16:40;4.6;;;8.6;;
74483;SDS011;62942;52.462;10.846;2023-09-19T06:17:50;4.6;;;8.8;;
74483;SDS011;62942;52.462;10.846;2023-09-19T06:18:50;4.5;;;8.6;;
74483;SDS011;62942;52.462;10.846;2023-09-19T06:19:50;4.2;;;8.8;;
74483;SDS011;62942;52.462;10.846;2023-09-19T06:21:00;4.2;;;8.7;;
74483;SDS011;62942;52.462;10.846;2023-09-19T06:22:10;4.1;;;9.5;;
74483;SDS011;62942;52.462;10.846;2023-09-19T06:23:20;4.2;;;6.9;;
74483;SDS011;62942;52.462;10.846;2023-09-19T06:24:20;4.1;;;7.3;;
74483;SDS011;62942;52.462;10.846;2023-09-19T06:25:30;3.9;;;9.8;;
74483;SDS011;62942;52.462;10.846;2023-09-19T06:26:40;4.1;;;8.3;;
74483;SDS011;62942;52.462;10.846;2023-09-19T06:27:50;3.8;;;8.5;;
74483;SDS011;62942;52.462;10.846;2023-09-19T06:29:00;3.8;;;6.1;;
74483;SDS011;62942;52.462;10.846;2023-09-19T06:30:00;3.8;;;8.4;;
74483;SDS011;62942;52.462;10.846;2023-09-19T06:31:10;3.8;;;8.3;;
74483;SDS011;62942;52.462;10.846;2023-09-19T06:32:10;3.9;;;6.9;;
74483;SDS011;62942;52.462;10.846;2023-09-19T06:33:20;3.7;;;7.4;;
74483;SDS011;62942;52.462;10.846;2023-09-19T06:34:30;3.6;;;7.3;;
74483;SDS011;62942;52.462;10.846;2023-09-19T06:35:40;3.6;;;7.7;;
74483;SDS011;62942;52.462;10.846;2023-09-19T06:36:40;3.8;;;8.4;;
74483;SDS011;62942;52.462;10.846;2023-09-19T06:37:50;3.8;;;8.7;;
74483;SDS011;62942;52.462;10.846;2023-09-19T06:39:00;3.6;;;8.1;;
74483;SDS011;62942;52.462;10.846;2023-09-19T06:40:10;3.5;;;7.4;;
74483;SDS011;62942;52.462;10.846;2023-09-19T06:41:10;3.5;;;8;;
74483;SDS011;62942;52.462;10.846;2023-09-19T06:42:10;3.6;;;8.7;;
74483;SDS011;62942;52.462;10.846;2023-09-19T06:43:20;3.5;;;9.3;;
74483;SDS011;62942;52.462;10.846;2023-09-19T06:44:30;3.5;;;7.7;;
74483;SDS011;62942;52.462;10.846;2023-09-19T06:45:40;3.4;;;7.9;;
74483;SDS011;62942;52.462;10.846;2023-09-19T06:46:50;3.4;;;8.4;;
74483;SDS011;62942;52.462;10.846;2023-09-19T06:47:50;3.2;;;6.9;;